Time;durP1;ratioP1;P1;durP2;ratioP2;P2;SDS_P1;SDS_P2;PMS_P1;PMS_P2;Temp;Humidity;BMP_temperature;BMP_pressure;BME280_temperature;BME280_humidity;BME280_pressure;Samples;Min_cycle;Max_cycle;Signal;HPM_P1;HPM_P2
2021/12/09 00:00:49;;;;;;;;;;;0.80;99.90;;;;;;5035109;28;19920;-78
2021/12/09 00:03:15;;;;;;;;;;;0.70;99.90;;;;;;5040424;28;19924;-78
2021/12/09 00:05:45;;;;;;;;;;;0.70;99.90;;;;;;5069248;28;19927;-78
2021/12/09 00:08:11;;;;;;;;;;;0.80;99.90;;;;;;5051865;28;20392;-80
2021/12/09 00:10:36;;;;;;;;;;;0.70;99.90;;;;;;5043519;28;19970;-78
2021/12/09 00:13:04;;;;;;;;;;;0.80;99.90;;;;;;5059446;28;19920;-78
2021/12/09 00:15:29;;;;;;;;;;;0.80;99.90;;;;;;5065073;28;19928;-78
2021/12/09 00:17:55;;;;;;;;;;;0.80;99.90;;;;;;5051458;28;19932;-78
2021/12/09 00:20:21;;;;;;;;;;;0.80;99.90;;;;;;5067989;28;19924;-79
2021/12/09 00:22:46;;;;;;;;;;;0.80;99.90;;;;;;5067637;28;19931;-78
2021/12/09 00:25:13;;;;;;;;;;;0.70;99.90;;;;;;5067563;28;19934;-78
2021/12/09 00:27:39;;;;;;;;;;;0.70;99.90;;;;;;5052589;28;19928;-78
2021/12/09 00:30:05;;;;;;;;;;;0.70;99.90;;;;;;5069243;28;20281;-78
2021/12/09 00:32:31;;;;;;;;;;;0.70;99.90;;;;;;5052019;28;19931;-78
2021/12/09 00:34:57;;;;;;;;;;;0.70;99.90;;;;;;5049285;28;19920;-78
2021/12/09 00:39:51;;;;;;;;;;;0.70;99.90;;;;;;5064501;28;19973;-80
2021/12/09 00:42:18;;;;;;;;;;;0.70;99.90;;;;;;5069477;28;19921;-78
2021/12/09 00:44:43;;;;;;;;;;;0.70;99.90;;;;;;5065485;28;19980;-78
2021/12/09 00:47:09;;;;;;;;;;;0.60;99.90;;;;;;5065819;28;20003;-79
2021/12/09 00:49:35;;;;;;;;;;;0.60;99.90;;;;;;5068275;28;19924;-78
2021/12/09 00:52:00;;;;;;;;;;;0.60;99.90;;;;;;5067464;28;20062;-78
2021/12/09 00:54:26;;;;;;;;;;;0.60;99.90;;;;;;5050543;28;19935;-77
2021/12/09 00:56:52;;;;;;;;;;;0.60;99.90;;;;;;5048946;28;19920;-77
2021/12/09 00:59:17;;;;;;;;;;;0.60;99.90;;;;;;5049673;28;19931;-77
2021/12/09 01:01:43;;;;;;;;;;;0.60;99.90;;;;;;5064779;28;19924;-80
2021/12/09 01:04:09;;;;;;;;;;;0.60;99.90;;;;;;5066942;28;20003;-78
2021/12/09 01:06:34;;;;;;;;;;;0.60;99.90;;;;;;5054615;28;20386;-78
2021/12/09 01:09:00;;;;;;;;;;;0.60;99.90;;;;;;5057983;28;20007;-78
2021/12/09 01:11:25;;;;;;;;;;;0.70;99.90;;;;;;5068545;28;19970;-78
2021/12/09 01:13:51;;;;;;;;;;;0.70;99.90;;;;;;5066708;28;19923;-78
2021/12/09 01:16:16;;;;;;;;;;;0.60;99.90;;;;;;5033676;28;19973;-78
2021/12/09 01:18:42;;;;;;;;;;;0.60;99.90;;;;;;5039929;28;19975;-78
2021/12/09 01:21:08;;;;;;;;;;;0.60;99.90;;;;;;5032376;28;19931;-78
2021/12/09 01:23:35;;;;;;;;;;;0.60;99.90;;;;;;5062292;28;19928;-82
2021/12/09 01:26:03;;;;;;;;;;;0.60;99.90;;;;;;5067070;28;19943;-78
2021/12/09 01:28:32;;;;;;;;;;;0.60;99.90;;;;;;5068232;28;20296;-78
2021/12/09 01:31:03;;;;;;;;;;;0.60;99.90;;;;;;5067481;28;19930;-78
2021/12/09 01:33:30;;;;;;;;;;;0.60;99.90;;;;;;5033100;28;19927;-78
2021/12/09 01:35:55;;;;;;;;;;;0.60;99.90;;;;;;5048334;28;19928;-78
2021/12/09 01:38:23;;;;;;;;;;;0.60;99.90;;;;;;5061743;28;19924;-78
2021/12/09 01:40:49;;;;;;;;;;;0.50;99.90;;;;;;5551565;22;20427;-77
2021/12/09 01:43:15;;;;;;;;;;;0.50;99.90;;;;;;5050679;28;19921;-78
2021/12/09 01:45:41;;;;;;;;;;;0.30;99.90;;;;;;5033390;28;19943;-81
2021/12/09 01:48:07;;;;;;;;;;;0.40;99.90;;;;;;5050552;28;19921;-79
2021/12/09 01:50:34;;;;;;;;;;;0.40;99.90;;;;;;5050626;28;19936;-78
2021/12/09 01:53:01;;;;;;;;;;;0.40;99.90;;;;;;5033910;28;19921;-77
2021/12/09 01:55:27;;;;;;;;;;;0.40;99.90;;;;;;5050566;28;19924;-78
2021/12/09 01:57:53;;;;;;;;;;;0.40;99.90;;;;;;5049987;28;19943;-78
2021/12/09 02:00:20;;;;;;;;;;;0.40;99.90;;;;;;5054543;28;20011;-78
2021/12/09 02:02:46;;;;;;;;;;;0.50;99.90;;;;;;5054129;28;20436;-78
2021/12/09 02:05:12;;;;;;;;;;;0.50;99.90;;;;;;5037753;28;19927;-78
2021/12/09 02:07:39;;;;;;;;;;;0.50;99.90;;;;;;5054459;28;20011;-77
2021/12/09 02:10:06;;;;;;;;;;;0.60;99.90;;;;;;5035682;28;19925;-77
2021/12/09 02:12:31;;;;;;;;;;;0.60;99.90;;;;;;5037903;28;19921;-78
2021/12/09 02:14:59;;;;;;;;;;;0.60;99.90;;;;;;5036636;28;20011;-78
2021/12/09 02:17:29;;;;;;;;;;;0.60;99.90;;;;;;5054108;28;20370;-77
2021/12/09 02:19:58;;;;;;;;;;;0.60;99.90;;;;;;5037360;28;19939;-78
2021/12/09 02:22:25;;;;;;;;;;;0.70;99.90;;;;;;5047563;28;19921;-79
2021/12/09 02:24:55;;;;;;;;;;;0.60;99.90;;;;;;5051248;28;19920;-78
2021/12/09 02:27:22;;;;;;;;;;;0.70;99.90;;;;;;5053747;28;19921;-77
2021/12/09 02:29:48;;;;;;;;;;;0.70;99.90;;;;;;5053591;28;19936;-77
2021/12/09 02:32:14;;;;;;;;;;;0.70;99.90;;;;;;5021009;28;19920;-77
2021/12/09 02:34:39;;;;;;;;;;;0.70;99.90;;;;;;5053683;28;20027;-78
2021/12/09 02:37:05;;;;;;;;;;;0.70;99.90;;;;;;5036872;28;20328;-77
2021/12/09 02:39:31;;;;;;;;;;;0.70;99.90;;;;;;5036902;28;20374;-77
2021/12/09 02:41:56;;;;;;;;;;;0.70;99.90;;;;;;5019785;28;19920;-78
2021/12/09 02:44:22;;;;;;;;;;;0.70;99.90;;;;;;5053125;28;19977;-77
2021/12/09 02:46:50;;;;;;;;;;;0.60;99.90;;;;;;5053191;28;19924;-82
2021/12/09 02:49:17;;;;;;;;;;;0.60;99.90;;;;;;5053555;28;20275;-78
2021/12/09 02:51:43;;;;;;;;;;;0.60;99.90;;;;;;5053491;28;19939;-77
2021/12/09 02:54:10;;;;;;;;;;;0.50;99.90;;;;;;5053154;28;19920;-78
2021/12/09 02:56:36;;;;;;;;;;;0.50;99.90;;;;;;5053417;28;19996;-79
2021/12/09 02:59:01;;;;;;;;;;;0.50;99.90;;;;;;5036505;28;19928;-78
2021/12/09 03:01:29;;;;;;;;;;;0.40;99.90;;;;;;5036565;28;19994;-79
2021/12/09 03:03:59;;;;;;;;;;;0.30;99.90;;;;;;5036447;28;20378;-78
2021/12/09 03:06:30;;;;;;;;;;;0.40;99.90;;;;;;5036514;28;19995;-78
2021/12/09 03:08:56;;;;;;;;;;;0.30;99.90;;;;;;5035471;28;20030;-77
2021/12/09 03:11:22;;;;;;;;;;;0.30;99.90;;;;;;5040296;28;20282;-78
2021/12/09 03:13:49;;;;;;;;;;;0.40;99.90;;;;;;5047153;28;19921;-80
2021/12/09 03:16:15;;;;;;;;;;;0.40;99.90;;;;;;5051293;28;19932;-78
2021/12/09 03:18:42;;;;;;;;;;;0.50;99.90;;;;;;5048446;28;19925;-78
2021/12/09 03:21:18;;;;;;;;;;;0.50;99.90;;;;;;5030944;28;19928;-78
2021/12/09 03:23:44;;;;;;;;;;;0.40;99.90;;;;;;5050942;28;19928;-79
2021/12/09 03:26:10;;;;;;;;;;;0.50;99.90;;;;;;5034140;28;20269;-79
2021/12/09 03:28:35;;;;;;;;;;;0.50;99.90;;;;;;5042502;28;19928;-81
2021/12/09 03:31:01;;;;;;;;;;;0.50;99.90;;;;;;5034545;28;19932;-79
2021/12/09 03:33:27;;;;;;;;;;;0.50;99.90;;;;;;5050990;28;19981;-78
2021/12/09 03:35:56;;;;;;;;;;;0.50;99.90;;;;;;5034392;28;19978;-87
2021/12/09 03:38:22;;;;;;;;;;;0.50;99.90;;;;;;5050985;28;19924;-78
2021/12/09 03:40:48;;;;;;;;;;;0.50;99.90;;;;;;5034080;28;19925;-78
2021/12/09 03:43:13;;;;;;;;;;;0.50;99.90;;;;;;5050623;28;20217;-80
2021/12/09 03:45:39;;;;;;;;;;;0.40;99.90;;;;;;5050659;28;19924;-78
2021/12/09 03:48:04;;;;;;;;;;;0.50;99.90;;;;;;5050753;28;20007;-81
2021/12/09 03:50:30;;;;;;;;;;;0.50;99.90;;;;;;5050816;28;19927;-79
2021/12/09 03:52:55;;;;;;;;;;;0.50;99.90;;;;;;5049968;28;19925;-88
2021/12/09 03:55:21;;;;;;;;;;;0.50;99.90;;;;;;5050534;28;20281;-80
2021/12/09 03:57:46;;;;;;;;;;;0.40;99.90;;;;;;5034466;28;19924;-79
2021/12/09 04:00:12;;;;;;;;;;;0.50;99.90;;;;;;5049845;28;19921;-79
2021/12/09 04:02:38;;;;;;;;;;;0.50;99.90;;;;;;5050015;28;20015;-79
2021/12/09 04:05:06;;;;;;;;;;;0.50;99.90;;;;;;5050146;28;19925;-80
2021/12/09 04:07:32;;;;;;;;;;;0.50;99.90;;;;;;5032810;28;20279;-83
2021/12/09 04:09:58;;;;;;;;;;;0.40;99.90;;;;;;5050166;28;19947;-85
2021/12/09 04:12:23;;;;;;;;;;;0.40;99.90;;;;;;5033128;28;19925;-79
2021/12/09 04:14:49;;;;;;;;;;;0.40;99.90;;;;;;5033687;28;20346;-79
2021/12/09 04:17:15;;;;;;;;;;;0.50;99.90;;;;;;5049788;28;19924;-80
2021/12/09 04:19:47;;;;;;;;;;;0.40;99.90;;;;;;5047416;28;19924;-83
2021/12/09 04:22:16;;;;;;;;;;;0.30;99.90;;;;;;5033294;28;19924;-80
2021/12/09 04:24:42;;;;;;;;;;;0.30;99.90;;;;;;5049497;28;19928;-79
2021/12/09 04:27:08;;;;;;;;;;;0.30;99.90;;;;;;5049428;28;19931;-79
2021/12/09 04:29:33;;;;;;;;;;;0.20;99.90;;;;;;5050540;28;20344;-79
2021/12/09 04:31:59;;;;;;;;;;;0.20;99.90;;;;;;5034763;28;19931;-79
2021/12/09 04:34:24;;;;;;;;;;;0.20;99.90;;;;;;5050814;28;19973;-80
2021/12/09 04:36:50;;;;;;;;;;;0.20;99.90;;;;;;5034649;28;20263;-79
2021/12/09 04:39:16;;;;;;;;;;;0.20;99.90;;;;;;5050913;28;20269;-79
2021/12/09 04:41:41;;;;;;;;;;;0.20;99.90;;;;;;5062823;28;19935;-80
2021/12/09 04:44:07;;;;;;;;;;;0.10;99.90;;;;;;5068142;28;20013;-79
2021/12/09 04:46:33;;;;;;;;;;;0.20;99.90;;;;;;5063046;28;19991;-80
2021/12/09 04:48:59;;;;;;;;;;;0.20;99.90;;;;;;5058572;28;20341;-79
2021/12/09 04:51:25;;;;;;;;;;;0.20;99.90;;;;;;5052895;28;20082;-79
2021/12/09 04:53:50;;;;;;;;;;;0.20;99.90;;;;;;5071092;28;19986;-81
2021/12/09 04:56:16;;;;;;;;;;;0.20;99.90;;;;;;5069829;28;19920;-80
2021/12/09 04:58:42;;;;;;;;;;;0.20;99.90;;;;;;5062016;28;19928;-79
2021/12/09 05:01:07;;;;;;;;;;;0.20;99.90;;;;;;5037082;28;19924;-82
2021/12/09 05:03:33;;;;;;;;;;;0.10;99.90;;;;;;5053666;28;20019;-79
2021/12/09 05:05:59;;;;;;;;;;;0.10;99.90;;;;;;5042946;28;19921;-81
2021/12/09 05:08:27;;;;;;;;;;;0.10;99.90;;;;;;5038504;28;19924;-80
2021/12/09 05:13:27;;;;;;;;;;;0.10;99.90;;;;;;5068024;28;20015;-79
2021/12/09 05:15:54;;;;;;;;;;;0.10;99.90;;;;;;5067091;28;19977;-79
2021/12/09 05:18:20;;;;;;;;;;;0.10;99.90;;;;;;5058259;28;19920;-80
2021/12/09 05:20:46;;;;;;;;;;;0.10;99.90;;;;;;5066177;28;19928;-79
2021/12/09 05:23:12;;;;;;;;;;;0.10;99.90;;;;;;5067721;28;19924;-86
2021/12/09 05:25:37;;;;;;;;;;;0.10;99.90;;;;;;5061328;28;19924;-80
2021/12/09 05:28:03;;;;;;;;;;;0.10;99.90;;;;;;5053810;28;19928;-81
2021/12/09 05:30:40;;;;;;;;;;;0.10;99.90;;;;;;5069668;28;20651;-79
2021/12/09 05:33:06;;;;;;;;;;;0.00;99.90;;;;;;5044043;28;19920;-79
2021/12/09 05:35:32;;;;;;;;;;;0.10;99.90;;;;;;5065682;28;20450;-79
2021/12/09 05:37:58;;;;;;;;;;;0.10;99.90;;;;;;5043776;28;19928;-80
2021/12/09 05:40:23;;;;;;;;;;;0.10;99.90;;;;;;5057427;28;19928;-80
2021/12/09 05:42:49;;;;;;;;;;;0.10;99.90;;;;;;5074327;28;20368;-79
2021/12/09 05:45:15;;;;;;;;;;;0.10;99.90;;;;;;5047933;28;20281;-86
2021/12/09 05:47:40;;;;;;;;;;;0.10;99.90;;;;;;5057766;28;20571;-78
2021/12/09 05:50:07;;;;;;;;;;;0.10;99.90;;;;;;5057424;28;19924;-79
2021/12/09 05:52:32;;;;;;;;;;;0.10;99.90;;;;;;5058173;28;19920;-79
2021/12/09 05:54:58;;;;;;;;;;;0.10;99.90;;;;;;5057257;28;19924;-79
2021/12/09 05:57:23;;;;;;;;;;;0.00;99.90;;;;;;5056858;28;20367;-79
2021/12/09 05:59:49;;;;;;;;;;;0.00;99.90;;;;;;5039855;28;20361;-79
2021/12/09 06:02:16;;;;;;;;;;;-0.10;99.90;;;;;;5057018;28;19932;-80
2021/12/09 06:04:42;;;;;;;;;;;-0.10;99.90;;;;;;5040328;28;20396;-79
2021/12/09 06:07:08;;;;;;;;;;;0.10;99.90;;;;;;5057034;28;20435;-79
2021/12/09 06:09:33;;;;;;;;;;;0.30;99.90;;;;;;5056890;28;19921;-80
2021/12/09 06:11:59;;;;;;;;;;;0.30;99.90;;;;;;5040312;28;20030;-79
2021/12/09 06:14:25;;;;;;;;;;;0.30;99.90;;;;;;5039929;28;19947;-79
2021/12/09 06:16:50;;;;;;;;;;;0.40;99.90;;;;;;5056522;28;19960;-79
2021/12/09 06:19:16;;;;;;;;;;;0.30;99.90;;;;;;5046669;28;19927;-79
2021/12/09 06:21:41;;;;;;;;;;;0.30;99.90;;;;;;5020335;28;19928;-80
2021/12/09 06:24:07;;;;;;;;;;;0.20;99.90;;;;;;5020064;28;19947;-79
2021/12/09 06:26:33;;;;;;;;;;;0.10;99.90;;;;;;5020055;28;19982;-76
2021/12/09 06:28:59;;;;;;;;;;;0.10;99.90;;;;;;5051364;28;19931;-78
2021/12/09 06:31:24;;;;;;;;;;;0.10;99.90;;;;;;5058051;28;19947;-79
2021/12/09 06:33:50;;;;;;;;;;;0.10;99.90;;;;;;5055115;28;19927;-78
2021/12/09 06:36:17;;;;;;;;;;;0.10;99.90;;;;;;5037767;28;19924;-79
2021/12/09 06:38:43;;;;;;;;;;;0.00;99.90;;;;;;5047788;28;19924;-78
2021/12/09 06:41:08;;;;;;;;;;;0.00;99.90;;;;;;5065190;28;19925;-81
2021/12/09 06:43:38;;;;;;;;;;;0.00;99.90;;;;;;5054861;28;19925;-82
2021/12/09 06:46:04;;;;;;;;;;;0.00;99.90;;;;;;5050314;28;20373;-82
2021/12/09 06:48:30;;;;;;;;;;;-0.10;99.90;;;;;;5038660;28;20400;-81
2021/12/09 06:50:56;;;;;;;;;;;-0.10;99.90;;;;;;5039975;28;19967;-82
2021/12/09 06:53:21;;;;;;;;;;;-0.10;99.90;;;;;;5071172;28;20329;-81
2021/12/09 06:55:47;;;;;;;;;;;0.00;99.90;;;;;;5040922;28;19978;-80
2021/12/09 06:58:13;;;;;;;;;;;-0.10;99.90;;;;;;5039308;28;19927;-82
2021/12/09 07:00:42;;;;;;;;;;;-0.10;99.90;;;;;;5004418;28;19925;-80
2021/12/09 07:03:08;;;;;;;;;;;-0.10;99.90;;;;;;5037890;28;20323;-79
2021/12/09 07:05:35;;;;;;;;;;;-0.10;99.90;;;;;;5061986;28;19966;-78
2021/12/09 07:08:01;;;;;;;;;;;-0.10;99.90;;;;;;5020579;28;20011;-79
2021/12/09 07:10:27;;;;;;;;;;;-0.10;99.90;;;;;;5034218;28;20651;-83
2021/12/09 07:12:52;;;;;;;;;;;-0.10;99.90;;;;;;5040064;28;19921;-79
2021/12/09 07:15:18;;;;;;;;;;;-0.10;99.90;;;;;;5056806;28;20276;-77
2021/12/09 07:17:44;;;;;;;;;;;0.00;99.90;;;;;;5056608;28;19936;-77
2021/12/09 07:20:11;;;;;;;;;;;-0.10;99.90;;;;;;5056450;28;20003;-77
2021/12/09 07:22:37;;;;;;;;;;;-0.10;99.90;;;;;;5039818;28;19920;-77
2021/12/09 07:25:03;;;;;;;;;;;-0.10;99.90;;;;;;5056444;28;20054;-77
2021/12/09 07:27:28;;;;;;;;;;;-0.10;99.90;;;;;;5056538;28;19924;-80
2021/12/09 07:29:54;;;;;;;;;;;-0.10;99.90;;;;;;5056309;28;19920;-78
2021/12/09 07:32:19;;;;;;;;;;;-0.10;99.90;;;;;;5056531;28;19920;-78
2021/12/09 07:34:45;;;;;;;;;;;-0.10;99.90;;;;;;5055933;28;19966;-78
2021/12/09 07:37:10;;;;;;;;;;;-0.10;99.90;;;;;;5055845;28;19920;-78
2021/12/09 07:39:36;;;;;;;;;;;-0.10;99.90;;;;;;5055658;28;20025;-79
2021/12/09 07:42:03;;;;;;;;;;;-0.10;99.90;;;;;;5055325;28;20405;-78
2021/12/09 07:44:29;;;;;;;;;;;-0.10;99.90;;;;;;5056028;28;19920;-79
2021/12/09 07:46:55;;;;;;;;;;;-0.10;99.90;;;;;;5055484;28;19924;-78
2021/12/09 07:49:21;;;;;;;;;;;-0.10;99.90;;;;;;5039634;28;19947;-78
2021/12/09 07:51:48;;;;;;;;;;;-0.10;99.90;;;;;;5055484;28;20160;-78
2021/12/09 07:54:13;;;;;;;;;;;-0.10;99.90;;;;;;5056203;28;20331;-78
2021/12/09 07:56:39;;;;;;;;;;;-0.10;99.90;;;;;;5055315;28;19927;-78
2021/12/09 07:59:04;;;;;;;;;;;-0.10;99.90;;;;;;5039663;28;20353;-77
2021/12/09 08:01:30;;;;;;;;;;;-0.10;99.90;;;;;;5039246;28;19924;-77
2021/12/09 08:03:56;;;;;;;;;;;-0.10;99.90;;;;;;5055199;28;19924;-78
2021/12/09 08:06:21;;;;;;;;;;;-0.10;99.90;;;;;;5055544;28;19989;-79
2021/12/09 08:08:47;;;;;;;;;;;-0.10;99.90;;;;;;5055238;28;19932;-78
2021/12/09 08:11:13;;;;;;;;;;;0.00;99.90;;;;;;5055585;28;19930;-77
2021/12/09 08:13:38;;;;;;;;;;;-0.10;99.90;;;;;;5055385;28;19927;-81
2021/12/09 08:16:04;;;;;;;;;;;0.00;99.90;;;;;;5055249;28;19925;-78
2021/12/09 08:18:43;;;;;;;;;;;-0.10;99.90;;;;;;5055438;28;19928;-78
2021/12/09 08:21:09;;;;;;;;;;;-0.10;99.90;;;;;;5055572;28;19920;-78
2021/12/09 08:23:34;;;;;;;;;;;0.00;99.90;;;;;;5055155;28;19920;-78
2021/12/09 08:26:00;;;;;;;;;;;0.00;99.90;;;;;;5055043;28;20253;-78
2021/12/09 08:28:26;;;;;;;;;;;0.00;99.90;;;;;;5055161;28;19974;-78
2021/12/09 08:30:52;;;;;;;;;;;0.10;99.90;;;;;;5055341;28;20377;-79
2021/12/09 08:33:19;;;;;;;;;;;0.00;99.90;;;;;;5055493;28;19924;-78
2021/12/09 08:35:44;;;;;;;;;;;0.00;99.90;;;;;;5037964;28;20371;-79
2021/12/09 08:38:10;;;;;;;;;;;0.00;99.90;;;;;;5055317;28;20015;-78
2021/12/09 08:40:36;;;;;;;;;;;0.00;99.90;;;;;;5038659;28;19920;-78
2021/12/09 08:43:02;;;;;;;;;;;0.00;99.90;;;;;;5037746;28;19923;-78
2021/12/09 08:45:29;;;;;;;;;;;0.10;99.90;;;;;;5055097;28;19924;-77
2021/12/09 08:47:54;;;;;;;;;;;0.10;99.90;;;;;;5054498;28;19943;-80
2021/12/09 08:50:22;;;;;;;;;;;0.10;99.90;;;;;;5071126;28;19921;-79
2021/12/09 08:52:48;;;;;;;;;;;0.10;99.90;;;;;;5054670;28;19925;-78
2021/12/09 08:55:15;;;;;;;;;;;0.20;99.90;;;;;;5071596;28;19964;-78
2021/12/09 08:57:40;;;;;;;;;;;0.10;99.90;;;;;;5054778;28;19932;-78
2021/12/09 09:00:11;;;;;;;;;;;0.20;99.90;;;;;;5054530;28;19920;-79
2021/12/09 09:02:39;;;;;;;;;;;0.20;99.90;;;;;;5038108;28;19928;-78
2021/12/09 09:05:08;;;;;;;;;;;0.20;99.90;;;;;;5070800;28;20062;-78
2021/12/09 09:07:33;;;;;;;;;;;0.30;99.90;;;;;;5054994;28;19924;-79
2021/12/09 09:09:59;;;;;;;;;;;0.30;99.90;;;;;;5053965;28;20388;-78
2021/12/09 09:12:26;;;;;;;;;;;0.30;99.90;;;;;;5037725;28;19924;-79
2021/12/09 09:14:52;;;;;;;;;;;0.30;99.90;;;;;;5037832;28;20360;-78
2021/12/09 09:17:18;;;;;;;;;;;0.30;99.90;;;;;;5054309;28;19978;-78
2021/12/09 09:19:44;;;;;;;;;;;0.40;99.90;;;;;;5045776;28;19925;-79
2021/12/09 09:22:10;;;;;;;;;;;0.40;99.90;;;;;;5018071;28;20345;-78
2021/12/09 09:24:35;;;;;;;;;;;0.40;99.90;;;;;;5017753;28;19974;-78
2021/12/09 09:27:01;;;;;;;;;;;0.40;99.90;;;;;;5017842;28;19971;-77
2021/12/09 09:29:27;;;;;;;;;;;0.50;99.90;;;;;;5018347;28;20015;-78
2021/12/09 09:31:53;;;;;;;;;;;0.40;99.90;;;;;;5034524;28;20271;-78
2021/12/09 09:34:18;;;;;;;;;;;0.40;99.90;;;;;;5034663;28;20007;-78
2021/12/09 09:36:44;;;;;;;;;;;0.50;99.90;;;;;;5018054;28;19921;-78
2021/12/09 09:39:18;;;;;;;;;;;0.50;99.90;;;;;;5017489;28;20480;-77
2021/12/09 09:41:55;;;;;;;;;;;0.50;99.90;;;;;;5018186;28;19987;-77
2021/12/09 09:44:27;;;;;;;;;;;0.60;99.90;;;;;;5034635;28;19987;-77
2021/12/09 09:46:55;;;;;;;;;;;0.60;99.90;;;;;;5002156;28;19921;-85
2021/12/09 09:49:21;;;;;;;;;;;0.60;99.90;;;;;;5033980;28;19920;-78
2021/12/09 09:51:46;;;;;;;;;;;0.60;99.90;;;;;;5034191;28;19921;-78
2021/12/09 09:54:12;;;;;;;;;;;0.60;99.90;;;;;;5017813;28;20516;-78
2021/12/09 09:56:41;;;;;;;;;;;0.60;99.90;;;;;;5017996;28;19924;-78
2021/12/09 09:59:08;;;;;;;;;;;0.70;99.90;;;;;;5034087;28;19939;-78
2021/12/09 10:01:35;;;;;;;;;;;0.70;99.90;;;;;;5034345;28;19920;-77
2021/12/09 10:04:12;;;;;;;;;;;0.80;99.90;;;;;;5051552;28;19921;-77
2021/12/09 10:06:39;;;;;;;;;;;0.80;99.90;;;;;;5034161;28;19921;-78
2021/12/09 10:09:05;;;;;;;;;;;0.80;99.90;;;;;;5017802;28;19921;-78
2021/12/09 10:11:31;;;;;;;;;;;0.90;99.90;;;;;;5034400;28;20020;-78
2021/12/09 10:14:07;;;;;;;;;;;1.00;99.90;;;;;;5033746;28;20016;-78
2021/12/09 10:16:34;;;;;;;;;;;1.00;99.90;;;;;;5034194;28;19921;-77
2021/12/09 10:18:59;;;;;;;;;;;1.10;99.90;;;;;;5017360;28;20285;-81
2021/12/09 10:21:27;;;;;;;;;;;1.20;99.90;;;;;;5037388;28;19932;-77
2021/12/09 10:23:58;;;;;;;;;;;1.30;99.90;;;;;;5037917;28;19921;-77
2021/12/09 10:26:25;;;;;;;;;;;1.30;99.90;;;;;;5037878;28;19921;-79
2021/12/09 10:29:06;;;;;;;;;;;1.40;99.90;;;;;;5037829;28;19921;-77
2021/12/09 10:31:35;;;;;;;;;;;1.50;99.90;;;;;;5021350;28;19927;-77
2021/12/09 10:34:09;;;;;;;;;;;1.60;99.90;;;;;;5037036;28;19928;-79
2021/12/09 10:36:46;;;;;;;;;;;1.70;99.90;;;;;;5021003;28;19921;-78
2021/12/09 10:39:13;;;;;;;;;;;1.80;99.90;;;;;;5036852;28;19920;-77
2021/12/09 10:41:39;;;;;;;;;;;1.90;99.90;;;;;;5037095;28;19921;-76
2021/12/09 10:44:04;;;;;;;;;;;2.10;99.90;;;;;;5019898;28;20290;-76
2021/12/09 10:46:56;;;;;;;;;;;2.30;99.90;;;;;;5020877;28;19921;-76
2021/12/09 10:49:23;;;;;;;;;;;2.50;99.90;;;;;;5036609;28;19931;-76
2021/12/09 10:51:57;;;;;;;;;;;2.60;99.90;;;;;;5020496;28;20285;-77
2021/12/09 10:54:29;;;;;;;;;;;2.70;99.90;;;;;;5036460;28;19925;-76
2021/12/09 10:56:55;;;;;;;;;;;2.80;99.90;;;;;;5036668;28;19920;-76
2021/12/09 10:59:30;;;;;;;;;;;2.80;99.90;;;;;;5019645;28;20101;-76
2021/12/09 11:02:08;;;;;;;;;;;2.90;99.90;;;;;;5036143;28;19921;-76
2021/12/09 11:04:33;;;;;;;;;;;2.90;99.90;;;;;;5035932;28;20396;-76
2021/12/09 11:06:59;;;;;;;;;;;2.90;99.90;;;;;;5019761;28;19924;-76
2021/12/09 11:09:24;;;;;;;;;;;3.00;99.90;;;;;;5019465;28;20346;-78
2021/12/09 11:11:55;;;;;;;;;;;2.90;99.90;;;;;;5036110;28;19943;-76
2021/12/09 11:14:22;;;;;;;;;;;2.90;99.90;;;;;;5035768;28;19943;-76
2021/12/09 11:16:50;;;;;;;;;;;2.80;99.90;;;;;;5018912;28;19949;-76
2021/12/09 11:19:23;;;;;;;;;;;2.80;99.90;;;;;;5044855;28;19956;-77
2021/12/09 11:21:56;;;;;;;;;;;2.90;99.90;;;;;;5038535;28;20014;-76
2021/12/09 11:24:23;;;;;;;;;;;2.90;99.90;;;;;;5055046;28;19978;-76
2021/12/09 11:27:00;;;;;;;;;;;2.90;99.90;;;;;;5072053;28;19938;-77
2021/12/09 11:29:32;;;;;;;;;;;2.80;99.90;;;;;;5038731;28;19920;-77
2021/12/09 11:32:08;;;;;;;;;;;2.80;99.90;;;;;;5055106;28;19924;-76
2021/12/09 11:34:42;;;;;;;;;;;2.90;99.90;;;;;;5056011;28;19920;-77
2021/12/09 11:37:22;;;;;;;;;;;3.00;99.90;;;;;;5055997;28;19924;-87
2021/12/09 11:39:48;;;;;;;;;;;3.00;99.90;;;;;;5039808;28;19924;-76
2021/12/09 11:42:17;;;;;;;;;;;3.10;99.90;;;;;;5055400;28;19920;-76
2021/12/09 11:44:44;;;;;;;;;;;3.10;99.90;;;;;;5055986;28;20414;-79
2021/12/09 11:47:10;;;;;;;;;;;3.10;99.90;;;;;;5039052;28;19931;-77
2021/12/09 11:49:36;;;;;;;;;;;3.10;99.90;;;;;;5055609;28;19920;-77
2021/12/09 11:52:01;;;;;;;;;;;3.10;99.90;;;;;;5055852;28;19995;-77
2021/12/09 11:54:27;;;;;;;;;;;3.20;99.90;;;;;;5055287;28;20357;-76
2021/12/09 11:57:16;;;;;;;;;;;3.30;99.90;;;;;;5055914;28;19958;-76
2021/12/09 12:06:39;;;;;;;;;;;3.20;99.90;;;;;;5055488;28;19925;-76
2021/12/09 12:11:25;;;;;;;;;;;3.20;99.90;;;;;;5033649;28;20018;-76
2021/12/09 12:13:57;;;;;;;;;;;3.10;99.90;;;;;;5038679;28;20328;-76
2021/12/09 12:17:19;;;;;;;;;;;3.20;99.90;;;;;;5038850;28;19924;-77
2021/12/09 12:19:33;;;;;;;;;;;3.20;99.90;;;;;;5039046;28;19943;-77
2021/12/09 12:22:20;;;;;;;;;;;3.20;99.90;;;;;;5019243;28;20259;-77
2021/12/09 12:25:03;;;;;;;;;;;3.20;99.90;;;;;;5035304;28;20046;-76
2021/12/09 12:27:38;;;;;;;;;;;3.20;99.90;;;;;;5035112;28;19928;-76
2021/12/09 12:30:21;;;;;;;;;;;3.30;99.90;;;;;;5019414;28;19928;-76
2021/12/09 12:38:30;;;;;;;;;;;3.30;99.90;;;;;;5034796;28;19925;-78
2021/12/09 12:41:08;;;;;;;;;;;3.30;99.90;;;;;;5035123;28;19924;-79
2021/12/09 12:43:38;;;;;;;;;;;3.30;99.90;;;;;;5052479;28;20374;-77
2021/12/09 12:51:26;;;;;;;;;;;3.30;99.90;;;;;;5035041;28;19974;-78
2021/12/09 12:53:58;;;;;;;;;;;3.30;99.90;;;;;;5034741;28;19921;-77
2021/12/09 12:56:39;;;;;;;;;;;3.30;99.90;;;;;;5034121;28;19921;-76
2021/12/09 12:59:10;;;;;;;;;;;3.30;99.90;;;;;;5034867;28;20285;-76
2021/12/09 13:01:44;;;;;;;;;;;3.30;99.90;;;;;;5034554;28;19959;-77
2021/12/09 13:04:35;;;;;;;;;;;3.40;99.90;;;;;;5018381;28;20019;-77
2021/12/09 13:07:15;;;;;;;;;;;3.30;99.90;;;;;;5034363;28;19920;-77
2021/12/09 13:09:51;;;;;;;;;;;3.40;99.90;;;;;;5052549;28;19927;-82
2021/12/09 13:12:42;;;;;;;;;;;3.30;99.90;;;;;;5034511;28;20054;-85
2021/12/09 13:15:21;;;;;;;;;;;3.30;99.90;;;;;;5034409;28;19925;-77
2021/12/09 13:17:58;;;;;;;;;;;3.30;99.90;;;;;;5034717;28;19920;-77
2021/12/09 13:20:41;;;;;;;;;;;3.40;99.90;;;;;;5053898;28;19927;-77
2021/12/09 13:23:24;;;;;;;;;;;3.40;99.90;;;;;;5037792;28;20152;-77
2021/12/09 13:26:15;;;;;;;;;;;3.40;99.90;;;;;;5037534;28;20011;-77
2021/12/09 13:29:01;;;;;;;;;;;3.40;99.90;;;;;;5053854;28;20438;-76
2021/12/09 13:32:00;;;;;;;;;;;3.40;99.90;;;;;;5053740;28;19928;-77
2021/12/09 13:34:34;;;;;;;;;;;3.40;99.90;;;;;;5053864;28;19924;-76
2021/12/09 13:37:33;;;;;;;;;;;3.40;99.90;;;;;;5037232;28;19920;-77
2021/12/09 13:45:54;;;;;;;;;;;3.40;99.90;;;;;;5053229;28;19970;-77
2021/12/09 13:48:27;;;;;;;;;;;3.50;99.90;;;;;;5054358;28;19924;-84
2021/12/09 13:51:20;;;;;;;;;;;3.40;99.90;;;;;;5054487;28;19924;-77
2021/12/09 13:56:23;;;;;;;;;;;3.50;99.90;;;;;;5057494;28;19989;-78
2021/12/09 13:58:49;;;;;;;;;;;3.50;99.90;;;;;;5058149;28;19924;-78
2021/12/09 14:01:15;;;;;;;;;;;3.40;99.90;;;;;;5058116;28;20010;-78
2021/12/09 14:03:41;;;;;;;;;;;3.50;99.90;;;;;;5057223;28;20326;-79
2021/12/09 14:06:10;;;;;;;;;;;3.40;99.90;;;;;;5057922;28;19920;-78
2021/12/09 14:08:45;;;;;;;;;;;3.50;99.90;;;;;;5040652;28;19963;-76
2021/12/09 14:11:21;;;;;;;;;;;3.40;99.90;;;;;;5057799;28;20274;-78
2021/12/09 14:13:57;;;;;;;;;;;3.40;99.90;;;;;;5057256;28;19978;-80
2021/12/09 14:16:39;;;;;;;;;;;3.50;99.90;;;;;;5040894;28;19928;-82
2021/12/09 14:21:33;;;;;;;;;;;3.40;99.90;;;;;;5037484;28;20011;-77
2021/12/09 14:24:08;;;;;;;;;;;3.40;99.90;;;;;;5021102;28;19932;-76
2021/12/09 14:26:34;;;;;;;;;;;3.50;99.90;;;;;;5037323;28;19921;-77
2021/12/09 14:29:00;;;;;;;;;;;3.40;99.90;;;;;;5021008;28;19993;-77
2021/12/09 14:31:26;;;;;;;;;;;3.50;99.90;;;;;;5037322;28;20377;-85
2021/12/09 14:33:52;;;;;;;;;;;3.40;99.90;;;;;;5037717;28;19928;-77
2021/12/09 14:36:18;;;;;;;;;;;3.40;99.90;;;;;;5020995;28;20444;-76
2021/12/09 14:38:44;;;;;;;;;;;3.40;99.90;;;;;;5037071;28;20361;-77
2021/12/09 14:41:16;;;;;;;;;;;3.40;99.90;;;;;;5037150;28;19947;-77
2021/12/09 14:43:45;;;;;;;;;;;3.40;99.90;;;;;;5036635;28;19921;-77
2021/12/09 14:46:18;;;;;;;;;;;3.40;99.90;;;;;;5037301;28;20360;-77
2021/12/09 14:48:45;;;;;;;;;;;3.50;99.90;;;;;;5036861;28;20277;-77
2021/12/09 14:51:22;;;;;;;;;;;3.50;99.90;;;;;;5037013;28;20520;-77
2021/12/09 14:53:50;;;;;;;;;;;3.50;99.90;;;;;;5020302;28;19932;-77
2021/12/09 14:56:19;;;;;;;;;;;3.40;99.90;;;;;;5037236;28;19921;-77
2021/12/09 14:58:44;;;;;;;;;;;3.40;99.90;;;;;;5036258;28;19943;-79
2021/12/09 15:01:15;;;;;;;;;;;3.50;99.90;;;;;;5037017;28;20354;-77
2021/12/09 15:03:43;;;;;;;;;;;3.40;99.90;;;;;;5036656;28;19927;-77
2021/12/09 15:06:40;;;;;;;;;;;3.50;99.90;;;;;;5019332;28;19927;-77
2021/12/09 15:09:14;;;;;;;;;;;3.40;99.90;;;;;;5004829;28;19995;-78
2021/12/09 15:11:45;;;;;;;;;;;3.50;99.90;;;;;;5036581;28;20042;-76